createdAt,value
2018-05-29T00:02:06.177Z,14.23
2018-05-29T00:04:34.468Z,13.17
2018-05-29T00:07:01.982Z,16.37
2018-05-29T00:09:29.517Z,15.20
2018-05-29T00:11:57.109Z,15.60
2018-05-29T00:14:24.619Z,14.57
2018-05-29T00:16:52.181Z,16.37
2018-05-29T00:19:19.698Z,13.27
2018-05-29T00:21:47.831Z,15.33
2018-05-29T00:24:15.403Z,17.13
2018-05-29T00:26:42.905Z,17.20
2018-05-29T00:29:11.226Z,17.13
2018-05-29T00:31:38.793Z,17.77
2018-05-29T00:34:06.315Z,18.90
2018-05-29T00:36:33.836Z,17.97
2018-05-29T00:39:01.349Z,19.03
2018-05-29T00:41:28.870Z,18.07
2018-05-29T00:43:56.398Z,19.60
2018-05-29T00:46:23.903Z,19.53
2018-05-29T00:48:51.400Z,19.10
2018-05-29T00:51:18.955Z,20.17
2018-05-29T00:53:46.461Z,18.63
2018-05-29T00:56:13.962Z,19.80
2018-05-29T00:58:41.500Z,19.77
2018-05-29T01:01:09.018Z,20.60
2018-05-29T01:03:36.532Z,19.37
2018-05-29T01:06:04.057Z,20.10
2018-05-29T01:08:31.614Z,17.60
2018-05-29T01:10:59.121Z,22.07
2018-05-29T01:13:26.625Z,20.70
2018-05-29T01:15:54.170Z,22.47
2018-05-29T01:18:21.674Z,19.97
2018-05-29T01:20:49.955Z,21.50
2018-05-29T01:23:17.497Z,21.03
2018-05-29T01:25:45.002Z,22.27
2018-05-29T01:28:12.506Z,21.97
2018-05-29T01:30:40.042Z,21.13
2018-05-29T01:33:07.543Z,19.40
2018-05-29T01:35:35.073Z,23.73
2018-05-29T01:38:02.659Z,23.40
2018-05-29T01:40:30.167Z,23.10
2018-05-29T01:42:57.685Z,23.60
2018-05-29T01:45:25.224Z,24.77
2018-05-29T01:47:53.433Z,24.43
2018-05-29T01:50:20.933Z,24.57
2018-05-29T01:52:49.173Z,24.10
2018-05-29T01:55:16.691Z,24.23
2018-05-29T01:57:44.197Z,21.70
2018-05-29T02:00:12.505Z,27.10
2018-05-29T02:02:40.022Z,21.83
2018-05-29T02:05:07.530Z,26.87
2018-05-29T02:07:35.089Z,27.27
2018-05-29T02:10:02.645Z,27.37
2018-05-29T02:12:30.150Z,21.23
2018-05-29T02:14:57.670Z,26.97
2018-05-29T02:17:25.186Z,27.30
2018-05-29T02:19:52.713Z,29.23
2018-05-29T02:22:20.237Z,29.80
2018-05-29T02:24:47.758Z,29.43
2018-05-29T02:27:15.269Z,29.87
2018-05-29T02:29:42.802Z,29.27
2018-05-29T02:32:10.327Z,29.33
2018-05-29T02:34:37.882Z,29.57
2018-05-29T02:37:05.411Z,32.00
2018-05-29T02:39:33.021Z,29.80
2018-05-29T02:42:00.536Z,28.97
2018-05-29T02:44:28.069Z,31.53
2018-05-29T02:46:55.653Z,30.47
2018-05-29T02:49:23.166Z,31.13
2018-05-29T02:51:50.672Z,31.77
2018-05-29T02:54:18.918Z,25.53
2018-05-29T02:56:46.429Z,34.77
2018-05-29T02:59:13.934Z,29.90
2018-05-29T03:01:42.225Z,33.10
2018-05-29T03:04:09.762Z,33.10
2018-05-29T03:06:38.091Z,33.57
2018-05-29T03:09:06.402Z,31.27
2018-05-29T03:11:33.918Z,35.83
2018-05-29T03:14:01.493Z,33.17
2018-05-29T03:16:29.002Z,35.27
2018-05-29T03:18:56.523Z,33.73
2018-05-29T03:21:24.914Z,36.03
2018-05-29T03:23:52.462Z,35.10
2018-05-29T03:26:19.974Z,35.97
2018-05-29T03:28:48.305Z,35.53
2018-05-29T03:31:15.849Z,37.80
2018-05-29T03:33:43.353Z,36.17
2018-05-29T03:36:10.940Z,35.90
2018-05-29T03:38:38.463Z,37.40
2018-05-29T03:41:05.966Z,36.17
2018-05-29T03:43:33.532Z,36.83
2018-05-29T03:46:01.038Z,37.53
2018-05-29T03:48:28.534Z,33.80
2018-05-29T03:50:56.071Z,31.40
2018-05-29T03:53:23.619Z,30.23
2018-05-29T03:55:51.330Z,30.33
2018-05-29T03:58:19.626Z,31.37
2018-05-29T04:00:47.169Z,32.50
2018-05-29T04:03:15.478Z,33.37
2018-05-29T04:05:43.002Z,32.80
2018-05-29T04:08:11.350Z,32.07
2018-05-29T04:10:39.776Z,35.60
2018-05-29T04:13:08.054Z,34.80
2018-05-29T04:15:35.575Z,35.37
2018-05-29T04:18:03.110Z,35.20
2018-05-29T04:20:30.634Z,36.83
2018-05-29T04:22:58.205Z,32.10
2018-05-29T04:25:25.722Z,35.83
2018-05-29T04:27:53.346Z,38.13
2018-05-29T04:30:20.920Z,37.73
2018-05-29T04:32:48.477Z,39.70
2018-05-29T04:35:16.035Z,40.63
2018-05-29T04:37:43.599Z,41.87
2018-05-29T04:40:11.113Z,41.60
2018-05-29T04:42:39.398Z,41.07
2018-05-29T04:45:06.918Z,47.20
2018-05-29T04:47:34.427Z,43.57
2018-05-29T04:50:01.940Z,36.70
2018-05-29T04:52:29.473Z,41.37
2018-05-29T04:54:56.973Z,41.70
2018-05-29T04:57:24.494Z,42.43
2018-05-29T04:59:52.047Z,41.27
2018-05-29T05:02:19.545Z,44.13
2018-05-29T05:04:47.110Z,43.50
2018-05-29T05:07:14.637Z,45.97
2018-05-29T05:09:42.177Z,45.27
2018-05-29T05:12:09.714Z,36.80
2018-05-29T05:14:37.261Z,45.63
2018-05-29T05:17:04.768Z,47.47
2018-05-29T05:19:32.286Z,48.80
2018-05-29T05:22:00.583Z,46.30
2018-05-29T05:24:28.119Z,29.90
2018-05-29T05:26:55.650Z,41.93
2018-05-29T05:29:23.190Z,46.13
2018-05-29T05:31:50.750Z,33.90
2018-05-29T05:34:18.273Z,39.20
2018-05-29T05:36:45.778Z,43.33
2018-05-29T05:39:13.337Z,46.57
2018-05-29T05:41:40.854Z,46.43
2018-05-29T05:44:08.364Z,45.50
2018-05-29T05:46:35.887Z,46.33
2018-05-29T05:49:04.200Z,38.93
2018-05-29T05:51:31.790Z,29.13
2018-05-29T05:53:59.293Z,35.40
2018-05-29T05:56:27.558Z,44.50
2018-05-29T05:58:55.145Z,31.47
2018-05-29T06:01:22.662Z,43.13
2018-05-29T06:03:50.202Z,45.87
2018-05-29T06:06:17.741Z,47.07
2018-05-29T06:08:45.250Z,40.23
2018-05-29T06:11:13.529Z,42.03
2018-05-29T06:13:41.921Z,42.40
2018-05-29T06:16:09.451Z,44.43
2018-05-29T06:18:36.953Z,46.80
2018-05-29T06:21:04.579Z,42.90
2018-05-29T06:23:32.114Z,40.77
2018-05-29T06:25:59.637Z,37.00
2018-05-29T06:28:27.181Z,45.07
2018-05-29T06:30:54.691Z,47.40
2018-05-29T06:33:22.198Z,47.70
2018-05-29T06:35:50.553Z,44.70
2018-05-29T06:38:18.069Z,37.13
2018-05-29T06:40:45.577Z,33.10
2018-05-29T06:43:13.109Z,34.13
2018-05-29T06:45:40.618Z,44.80
2018-05-29T06:48:08.134Z,45.80
2018-05-29T06:50:35.737Z,47.47
2018-05-29T06:53:04.019Z,44.67
2018-05-29T06:55:32.334Z,41.80
2018-05-29T06:57:59.877Z,42.00
2018-05-29T07:00:27.409Z,36.90
2018-05-29T07:02:54.926Z,44.80
2018-05-29T07:05:22.438Z,36.57
2018-05-29T07:07:49.974Z,46.90
2018-05-29T07:10:17.492Z,45.77
2018-05-29T07:12:45.003Z,45.80
2018-05-29T07:15:12.534Z,43.57
2018-05-29T07:17:40.038Z,47.57
2018-05-29T07:20:07.581Z,47.57
2018-05-29T07:22:35.088Z,49.13
2018-05-29T07:25:02.597Z,47.83
2018-05-29T07:27:30.135Z,44.17
2018-05-29T07:29:57.641Z,48.13
2018-05-29T07:32:25.165Z,47.67
2018-05-29T07:34:52.755Z,52.20
2018-05-29T07:37:21.043Z,51.83
2018-05-29T07:39:49.318Z,35.90
2018-05-29T07:44:50.669Z,47.60
2018-05-29T07:47:19.071Z,47.80
2018-05-29T07:49:46.603Z,44.23
2018-05-29T07:52:14.130Z,33.07
2018-05-29T07:54:41.649Z,45.73
2018-05-29T07:57:09.183Z,27.33
2018-05-29T07:59:36.731Z,43.57
2018-05-29T08:02:04.248Z,48.23
2018-05-29T08:04:31.794Z,45.47
2018-05-29T08:06:59.321Z,45.30
2018-05-29T08:09:26.873Z,40.23
2018-05-29T08:11:54.395Z,43.33
2018-05-29T08:14:21.914Z,35.60
2018-05-29T08:16:49.458Z,42.97
2018-05-29T08:19:16.982Z,41.07
2018-05-29T08:21:44.506Z,43.87
2018-05-29T08:24:12.813Z,42.63
2018-05-29T08:26:40.399Z,39.63
2018-05-29T08:29:07.929Z,38.07
2018-05-29T08:31:35.438Z,36.63
2018-05-29T08:34:02.977Z,45.30
2018-05-29T08:36:30.482Z,43.07
2018-05-29T08:38:58.011Z,43.43
2018-05-29T08:41:25.537Z,37.50
2018-05-29T08:43:53.086Z,40.00
2018-05-29T08:46:20.621Z,42.93
2018-05-29T08:48:48.154Z,32.13
2018-05-29T08:51:15.666Z,38.30
2018-05-29T08:53:44.017Z,40.67
2018-05-29T08:56:11.547Z,39.23
2018-05-29T08:58:39.207Z,41.93
2018-05-29T09:01:06.718Z,42.90
2018-05-29T09:03:35.006Z,41.10
2018-05-29T09:06:03.331Z,39.50
2018-05-29T09:08:30.853Z,43.97
2018-05-29T09:10:59.145Z,41.17
2018-05-29T09:13:26.663Z,40.63
2018-05-29T09:15:54.157Z,42.73
2018-05-29T09:18:22.454Z,40.93
2018-05-29T09:20:49.985Z,30.30
2018-05-29T09:23:18.269Z,39.00
2018-05-29T09:25:45.786Z,34.47
2018-05-29T09:28:13.381Z,29.97
2018-05-29T09:30:41.666Z,33.30
2018-05-29T09:33:09.939Z,36.43
2018-05-29T09:35:37.473Z,34.17
2018-05-29T09:38:04.983Z,37.93
2018-05-29T09:40:32.545Z,35.47
2018-05-29T09:43:00.091Z,29.73
2018-05-29T09:45:27.611Z,39.43
2018-05-29T09:47:55.137Z,36.13
2018-05-29T09:50:22.642Z,33.50
2018-05-29T09:52:50.192Z,34.83
2018-05-29T09:55:17.717Z,33.90
2018-05-29T09:57:45.227Z,31.03
2018-05-29T10:00:13.549Z,33.27
2018-05-29T10:02:41.093Z,29.90
2018-05-29T10:05:08.664Z,35.80
2018-05-29T10:07:36.214Z,26.37
2018-05-29T10:10:03.791Z,36.60
2018-05-29T10:12:31.291Z,38.30
2018-05-29T10:14:58.856Z,29.97
2018-05-29T10:17:26.398Z,30.97
2018-05-29T10:19:53.914Z,31.23
2018-05-29T10:22:21.467Z,35.67
2018-05-29T10:24:49.729Z,37.87
2018-05-29T10:27:18.014Z,36.60
2018-05-29T10:29:45.554Z,31.07
2018-05-29T10:32:13.064Z,23.10
2018-05-29T10:34:40.578Z,34.03
2018-05-29T10:37:08.097Z,37.93
2018-05-29T10:39:35.599Z,27.80
2018-05-29T10:42:03.150Z,28.87
2018-05-29T10:44:30.682Z,24.80
2018-05-29T10:46:58.192Z,36.53
2018-05-29T10:49:25.730Z,29.37
2018-05-29T10:51:53.292Z,31.70
2018-05-29T10:54:20.834Z,30.93
2018-05-29T10:56:48.342Z,27.83
2018-05-29T10:59:16.723Z,30.93
2018-05-29T11:01:44.267Z,30.50
2018-05-29T11:04:11.778Z,26.13
2018-05-29T11:06:39.322Z,21.87
2018-05-29T11:09:06.830Z,30.67
2018-05-29T11:11:34.351Z,26.93
2018-05-29T11:14:01.873Z,32.57
2018-05-29T11:16:29.389Z,29.60
2018-05-29T11:18:57.824Z,28.00
2018-05-29T11:21:26.131Z,27.40
2018-05-29T11:23:53.673Z,29.23
2018-05-29T11:26:21.235Z,30.83
2018-05-29T11:28:48.818Z,25.67
2018-05-29T11:31:16.368Z,31.63
2018-05-29T11:33:43.905Z,18.77
2018-05-29T11:36:11.407Z,31.57
2018-05-29T11:38:38.925Z,31.10
2018-05-29T11:41:06.474Z,25.20
2018-05-29T11:43:33.999Z,30.97
2018-05-29T11:46:01.518Z,28.33
2018-05-29T11:48:29.148Z,28.00
2018-05-29T11:50:56.622Z,21.27
2018-05-29T11:53:24.920Z,23.17
2018-05-29T11:55:52.481Z,27.57
2018-05-29T11:58:20.011Z,20.70
2018-05-29T12:00:47.653Z,20.17
2018-05-29T12:03:15.250Z,23.97
2018-05-29T12:12:08.181Z,21.77
2018-05-29T12:14:36.078Z,20.67
2018-05-29T12:17:07.014Z,24.00
2018-05-29T12:19:36.154Z,23.00
2018-05-29T12:22:10.103Z,23.62
2018-05-29T12:24:42.191Z,19.70
2018-05-29T12:30:08.828Z,23.20
2018-05-29T12:35:27.099Z,24.57
2018-05-29T12:37:56.176Z,21.03
2018-05-29T12:40:25.444Z,20.40
2018-05-29T12:57:17.230Z,23.70
2018-05-29T13:02:52.085Z,20.47
2018-05-29T13:05:30.643Z,20.77
2018-05-29T13:50:18.929Z,32.30
2018-05-29T13:52:47.198Z,30.47
2018-05-29T13:55:14.909Z,25.77
2018-05-29T13:57:42.638Z,28.47
2018-05-29T14:06:05.519Z,33.47
2018-05-29T14:20:25.530Z,35.23
2018-05-29T14:23:10.488Z,43.37
2018-05-29T14:31:40.485Z,39.70
2018-05-29T14:34:08.543Z,42.03
2018-05-29T14:36:41.530Z,38.50
2018-05-29T14:39:09.945Z,37.13
2018-05-29T14:41:37.685Z,41.97
2018-05-29T14:44:05.460Z,39.20
2018-05-29T14:46:35.876Z,37.53
2018-05-29T14:52:25.031Z,41.30
2018-05-29T14:54:52.546Z,37.80
2018-05-29T14:57:20.098Z,32.93
2018-05-29T14:59:51.731Z,38.70
2018-05-29T15:02:25.054Z,41.03
2018-05-29T15:04:52.680Z,42.77
2018-05-29T15:07:20.475Z,48.27
2018-05-29T15:09:48.437Z,46.33
2018-05-29T15:12:16.721Z,33.13
2018-05-29T15:14:44.314Z,43.43
2018-05-29T15:17:12.046Z,45.87
2018-05-29T15:19:39.710Z,45.70
2018-05-29T15:22:08.075Z,46.10
2018-05-29T15:24:35.604Z,48.57
2018-05-29T15:27:03.305Z,43.43
2018-05-29T15:29:30.858Z,43.43
2018-05-29T15:31:58.433Z,46.57
2018-05-29T15:34:26.046Z,42.67
2018-05-29T15:36:53.613Z,41.20
2018-05-29T15:39:21.891Z,44.73
2018-05-29T15:41:50.194Z,35.73
2018-05-29T15:44:17.715Z,34.93
2018-05-29T15:46:45.330Z,35.10
2018-05-29T15:49:12.848Z,32.73
2018-05-29T15:51:40.399Z,26.27
2018-05-29T15:54:07.931Z,28.87
2018-05-29T15:56:35.485Z,28.07
2018-05-29T15:59:03.111Z,23.37
2018-05-29T16:01:30.627Z,23.37
2018-05-29T16:03:58.654Z,21.83
2018-05-29T16:06:26.153Z,20.90
2018-05-29T16:08:53.775Z,20.10
2018-05-29T16:11:21.372Z,20.90
2018-05-29T16:13:48.848Z,20.43
2018-05-29T16:16:16.394Z,18.70
2018-05-29T16:18:43.897Z,19.70
2018-05-29T16:21:12.171Z,20.77
2018-05-29T16:23:39.746Z,22.30
2018-05-29T16:26:07.275Z,22.23
2018-05-29T16:28:35.636Z,23.37
2018-05-29T16:31:03.182Z,21.57
2018-05-29T16:33:30.694Z,22.37
2018-05-29T16:35:58.981Z,20.60
2018-05-29T16:38:26.543Z,24.77
2018-05-29T16:40:54.838Z,23.43
2018-05-29T16:43:22.373Z,23.70
2018-05-29T16:45:50.749Z,22.77
2018-05-29T16:48:19.048Z,24.30
2018-05-29T16:50:46.564Z,20.73
2018-05-29T16:53:14.106Z,16.60
2018-05-29T16:55:41.658Z,11.17
2018-05-29T16:58:09.175Z,8.00
2018-05-29T17:00:36.708Z,7.93
2018-05-29T17:03:05.050Z,8.83
2018-05-29T17:05:32.596Z,8.03
2018-05-29T17:08:00.920Z,6.87
2018-05-29T17:10:28.453Z,6.73
2018-05-29T17:12:55.942Z,7.07
2018-05-29T17:15:23.486Z,7.27
2018-05-29T17:17:51.050Z,7.13
2018-05-29T17:20:18.557Z,9.00
2018-05-29T17:22:46.844Z,9.20
2018-05-29T17:25:14.385Z,9.50
2018-05-29T17:27:41.954Z,10.30
2018-05-29T17:30:10.231Z,9.90
2018-05-29T17:32:37.849Z,10.50
2018-05-29T17:35:05.441Z,10.70
2018-05-29T17:37:33.726Z,16.17
2018-05-29T17:40:01.399Z,18.30
2018-05-29T17:42:28.946Z,25.17
2018-05-29T17:44:57.258Z,27.27
2018-05-29T17:47:25.396Z,25.40
2018-05-29T17:49:53.206Z,21.07
2018-05-29T17:52:20.771Z,27.57
2018-05-29T17:54:48.503Z,28.33
2018-05-29T17:57:16.083Z,26.77
2018-05-29T17:59:43.768Z,38.57
2018-05-29T18:02:11.361Z,32.87
2018-05-29T18:04:38.903Z,30.10
2018-05-29T18:07:06.486Z,41.13
2018-05-29T18:09:34.314Z,35.50
2018-05-29T18:12:02.038Z,32.83
2018-05-29T18:14:29.619Z,34.60
2018-05-29T18:16:57.192Z,34.10
2018-05-29T18:19:24.712Z,34.93
2018-05-29T18:21:52.457Z,34.63
2018-05-29T18:24:20.239Z,27.37
2018-05-29T18:26:47.998Z,29.13
2018-05-29T18:29:15.582Z,25.47
2018-05-29T18:31:43.123Z,30.13
2018-05-29T18:34:10.693Z,26.77
2018-05-29T18:36:38.259Z,29.20
2018-05-29T18:39:06.074Z,26.03
2018-05-29T18:41:33.648Z,28.40
2018-05-29T18:44:01.199Z,24.40
2018-05-29T18:46:28.823Z,30.60
2018-05-29T18:48:57.162Z,31.90
2018-05-29T18:51:24.677Z,33.23
2018-05-29T18:53:52.530Z,40.17
2018-05-29T18:56:20.853Z,39.70
2018-05-29T18:58:48.381Z,47.70
2018-05-29T19:01:15.977Z,47.67
2018-05-29T19:03:43.524Z,52.73
2018-05-29T19:06:11.048Z,51.23
2018-05-29T19:08:39.951Z,57.77
2018-05-29T19:11:08.271Z,57.30
2018-05-29T19:13:35.792Z,56.10
2018-05-29T19:16:04.099Z,55.50
2018-05-29T19:18:31.627Z,65.27
2018-05-29T19:21:00.019Z,59.00
2018-05-29T19:23:27.540Z,57.23
2018-05-29T19:25:55.064Z,49.20
2018-05-29T19:28:22.634Z,60.70
2018-05-29T19:30:50.138Z,49.77
2018-05-29T19:33:19.223Z,47.77
2018-05-29T19:35:47.075Z,34.77
2018-05-29T19:38:14.593Z,38.03
2018-05-29T19:40:42.218Z,38.50
2018-05-29T19:43:09.735Z,37.27
2018-05-29T19:45:37.276Z,36.37
2018-05-29T19:48:04.861Z,35.67
2018-05-29T19:50:32.619Z,40.43
2018-05-29T19:53:00.183Z,36.33
2018-05-29T19:55:27.772Z,30.57
2018-05-29T19:57:55.290Z,33.53
2018-05-29T20:00:22.799Z,33.10
2018-05-29T20:02:50.340Z,36.07
2018-05-29T20:05:17.901Z,33.00
2018-05-29T20:07:45.411Z,36.20
2018-05-29T20:10:13.711Z,32.73
2018-05-29T20:12:41.259Z,33.00
2018-05-29T20:15:09.523Z,32.60
2018-05-29T20:17:37.063Z,32.03
2018-05-29T20:20:04.662Z,32.33
2018-05-29T20:22:32.166Z,34.45
2018-05-29T20:24:59.768Z,31.73
2018-05-29T20:27:28.100Z,31.63
2018-05-29T20:29:55.643Z,30.47
2018-05-29T20:32:23.178Z,30.30
2018-05-29T20:34:50.721Z,29.23
2018-05-29T20:37:18.247Z,28.50
2018-05-29T20:39:45.787Z,31.23
2018-05-29T20:42:13.348Z,29.77
2018-05-29T20:44:40.864Z,29.10
2018-05-29T20:47:08.378Z,28.30
2018-05-29T20:49:35.936Z,30.80
2018-05-29T20:52:03.503Z,30.50
2018-05-29T20:54:31.018Z,29.60
2018-05-29T20:56:59.302Z,31.07
2018-05-29T20:59:26.887Z,31.50
2018-05-29T21:01:54.387Z,33.17
2018-05-29T21:04:21.950Z,31.10
2018-05-29T21:06:49.486Z,30.87
2018-05-29T21:09:17.022Z,31.50
2018-05-29T21:11:44.539Z,31.83
2018-05-29T21:14:12.905Z,31.17
2018-05-29T21:16:40.406Z,30.03
2018-05-29T21:19:07.958Z,29.30
2018-05-29T21:21:36.352Z,28.47
2018-05-29T21:24:03.892Z,28.50
2018-05-29T21:26:31.503Z,29.43
2018-05-29T21:28:59.046Z,27.57
2018-05-29T21:31:26.576Z,30.00
2018-05-29T21:33:54.103Z,27.93
2018-05-29T21:36:21.638Z,29.07
2018-05-29T21:38:49.165Z,26.67
2018-05-29T21:41:16.730Z,26.07
2018-05-29T21:43:44.266Z,26.97
2018-05-29T21:46:11.771Z,27.37
2018-05-29T21:48:39.278Z,25.43
2018-05-29T21:51:06.826Z,25.40
2018-05-29T21:53:34.348Z,25.50
2018-05-29T21:56:01.892Z,24.53
2018-05-29T21:58:30.182Z,24.97
2018-05-29T22:00:57.720Z,23.73
2018-05-29T22:03:26.029Z,24.23
2018-05-29T22:05:53.625Z,23.60
2018-05-29T22:08:21.153Z,23.63
2018-05-29T22:10:48.659Z,23.47
2018-05-29T22:13:16.211Z,22.17
2018-05-29T22:15:43.770Z,21.17
2018-05-29T22:18:11.292Z,20.53
2018-05-29T22:20:38.830Z,22.13
2018-05-29T22:23:06.370Z,21.17
2018-05-29T22:25:33.881Z,21.03
2018-05-29T22:28:01.417Z,20.40
2018-05-29T22:30:29.004Z,20.33
2018-05-29T22:32:56.463Z,20.50
2018-05-29T22:35:23.999Z,20.67
2018-05-29T22:37:51.519Z,19.10
2018-05-29T22:40:19.053Z,17.27
2018-05-29T22:42:46.619Z,18.23
2018-05-29T22:45:14.138Z,17.30
2018-05-29T22:47:41.654Z,16.70
2018-05-29T22:50:09.176Z,15.00
2018-05-29T22:52:36.680Z,14.40
2018-05-29T22:55:04.220Z,12.93
2018-05-29T22:57:31.725Z,14.03
2018-05-29T22:59:59.999Z,13.23
2018-05-29T23:02:27.542Z,12.37
2018-05-29T23:04:55.057Z,12.70
2018-05-29T23:07:22.596Z,12.57
2018-05-29T23:09:50.858Z,11.60
2018-05-29T23:12:19.136Z,11.23
2018-05-29T23:14:46.682Z,10.93
2018-05-29T23:17:14.203Z,11.03
2018-05-29T23:19:41.713Z,10.97
2018-05-29T23:22:10.010Z,10.97
2018-05-29T23:24:37.519Z,9.03
2018-05-29T23:27:05.051Z,8.80
2018-05-29T23:29:32.607Z,9.07
2018-05-29T23:32:00.135Z,8.47
2018-05-29T23:34:28.461Z,8.27
2018-05-29T23:36:56.810Z,7.87
2018-05-29T23:39:24.323Z,7.33
2018-05-29T23:41:51.880Z,7.13
2018-05-29T23:44:19.379Z,6.90
2018-05-29T23:46:46.880Z,6.60
2018-05-29T23:49:14.402Z,6.67
2018-05-29T23:51:42.020Z,7.00
2018-05-29T23:54:09.530Z,6.20
2018-05-29T23:56:37.080Z,6.87
2018-05-29T23:59:04.612Z,6.70
